Time;durP1;ratioP1;P1;durP2;ratioP2;P2;SDS_P1;SDS_P2;PMS_P1;PMS_P2;Temp;Humidity;BMP_temperature;BMP_pressure;BME280_temperature;BME280_humidity;BME280_pressure;Samples;Min_cycle;Max_cycle;Signal;HPM_P1;HPM_P2
2023/11/07 00:02:10;;;;;;;4.80;1.40;;;;;;;16.73;49.26;100477.28;5031123;28;20037;-57
2023/11/07 00:04:36;;;;;;;9.55;1.33;;;;;;;16.73;48.25;100474.59;5032177;28;20044;-57
2023/11/07 00:07:03;;;;;;;5.10;1.38;;;;;;;16.73;48.80;100483.53;5031975;28;20087;-56
2023/11/07 00:09:28;;;;;;;4.57;1.10;;;;;;;16.68;49.02;100480.53;5036065;28;20408;-56
2023/11/07 00:11:53;;;;;;;4.32;1.42;;;;;;;16.69;49.19;100478.69;5034968;28;20481;-56
2023/11/07 00:14:21;;;;;;;4.78;0.98;;;;;;;16.69;48.85;100484.94;5035102;28;20485;-56
2023/11/07 00:16:50;;;;;;;5.85;1.15;;;;;;;16.69;49.50;100487.66;5027541;28;20042;-57
2023/11/07 00:19:15;;;;;;;4.55;1.02;;;;;;;16.72;49.00;100489.16;5014821;28;20042;-56
2023/11/07 00:21:41;;;;;;;3.78;1.45;;;;;;;16.70;49.01;100481.19;5015982;28;20401;-56
2023/11/07 00:24:06;;;;;;;1.98;0.93;;;;;;;16.74;48.55;100490.66;5014595;28;20506;-57
2023/11/07 00:26:33;;;;;;;3.08;0.82;;;;;;;16.75;49.32;100484.19;5016032;28;20036;-56
2023/11/07 00:28:59;;;;;;;2.72;0.98;;;;;;;16.75;48.58;100489.63;5014653;28;20045;-57
2023/11/07 00:31:24;;;;;;;1.77;0.70;;;;;;;16.75;48.92;100497.72;5015558;28;20030;-56
2023/11/07 00:33:49;;;;;;;1.27;0.82;;;;;;;16.74;48.50;100487.94;4998666;28;20160;-56
2023/11/07 00:36:16;;;;;;;3.42;0.85;;;;;;;16.75;48.55;100495.03;5016626;28;20037;-57
2023/11/07 00:38:41;;;;;;;1.73;0.65;;;;;;;16.76;49.59;100496.72;5016009;28;20080;-56
2023/11/07 00:41:06;;;;;;;2.45;1.58;;;;;;;16.75;48.63;100495.03;5015633;28;20037;-61
2023/11/07 00:43:32;;;;;;;4.72;1.00;;;;;;;16.78;48.55;100493.81;5015748;28;20034;-61
2023/11/07 00:45:57;;;;;;;4.43;0.80;;;;;;;16.77;48.42;100498.41;4998101;28;20121;-61
2023/11/07 00:48:23;;;;;;;1.65;0.50;;;;;;;16.75;49.47;100497.72;5014106;28;20117;-61
2023/11/07 00:50:49;;;;;;;1.90;0.60;;;;;;;16.77;48.62;100492.16;5015568;28;20485;-61
2023/11/07 00:53:15;;;;;;;3.22;0.63;;;;;;;16.73;49.16;100499.78;5014387;28;20048;-61
2023/11/07 00:55:40;;;;;;;3.30;0.57;;;;;;;16.74;49.31;100501.47;5015398;28;20026;-61
2023/11/07 00:58:05;;;;;;;2.30;0.77;;;;;;;16.69;49.17;100500.31;5015399;28;20084;-61
2023/11/07 01:00:33;;;;;;;1.25;0.63;;;;;;;16.68;49.50;100510.28;5015389;28;20037;-61
2023/11/07 01:02:59;;;;;;;5.88;0.93;;;;;;;16.68;49.23;100507.59;5014970;28;20038;-61
2023/11/07 01:05:24;;;;;;;2.92;0.85;;;;;;;16.66;49.47;100512.34;4997591;28;20132;-61
2023/11/07 01:07:49;;;;;;;0.60;0.40;;;;;;;16.68;48.99;100520.25;5015279;28;20038;-61
2023/11/07 01:10:15;;;;;;;1.77;0.52;;;;;;;16.64;49.11;100519.75;5015219;28;20490;-61
2023/11/07 01:12:40;;;;;;;2.90;1.30;;;;;;;16.66;49.07;100523.16;5015129;28;20034;-61
2023/11/07 01:15:06;;;;;;;2.63;1.20;;;;;;;16.69;49.44;100528.22;5014923;28;20030;-61
2023/11/07 01:17:32;;;;;;;4.50;0.90;;;;;;;16.69;48.46;100517.41;5014678;28;20609;-61
2023/11/07 01:19:57;;;;;;;2.83;1.02;;;;;;;16.70;48.99;100532.59;5013833;28;20034;-61
2023/11/07 01:22:23;;;;;;;1.63;0.70;;;;;;;16.66;49.10;100522.31;5014898;28;20040;-61
2023/11/07 01:24:49;;;;;;;3.25;1.10;;;;;;;16.69;49.65;100533.63;4997561;28;20433;-63
2023/11/07 01:27:14;;;;;;;4.70;0.82;;;;;;;16.69;49.36;100539.03;4997849;28;20037;-61
2023/11/07 01:29:39;;;;;;;2.25;0.70;;;;;;;16.68;49.45;100536.50;5013422;28;20030;-61
2023/11/07 01:32:05;;;;;;;2.60;0.60;;;;;;;16.68;50.14;100536.50;5013307;28;20089;-61
2023/11/07 01:34:31;;;;;;;0.60;0.60;;;;;;;16.67;48.50;100535.63;5014802;28;20034;-61
2023/11/07 01:36:56;;;;;;;2.05;0.45;;;;;;;16.69;49.52;100539.03;5013632;28;20446;-61
2023/11/07 01:39:21;;;;;;;4.45;0.75;;;;;;;16.64;48.27;100527.88;5014929;28;20030;-61
2023/11/07 01:41:47;;;;;;;3.17;0.93;;;;;;;16.69;49.24;100530.91;5014939;28;20076;-63
2023/11/07 01:44:12;;;;;;;8.10;1.20;;;;;;;16.70;49.05;100529.88;5011556;28;20124;-61
2023/11/07 01:46:38;;;;;;;6.55;1.08;;;;;;;16.72;49.75;100532.44;5024002;28;20116;-61
2023/11/07 01:49:04;;;;;;;2.03;1.08;;;;;;;16.72;48.84;100521.59;5019896;28;20084;-58
2023/11/07 01:51:29;;;;;;;1.83;1.20;;;;;;;16.72;49.44;100527.03;5014082;28;20127;-56
2023/11/07 01:53:55;;;;;;;2.88;0.95;;;;;;;16.69;48.70;100521.97;5013603;28;20034;-57
2023/11/07 01:56:23;;;;;;;3.35;0.55;;;;;;;16.66;48.98;100523.16;5014298;28;20429;-57
2023/11/07 01:58:48;;;;;;;3.50;0.70;;;;;;;16.66;49.53;100528.56;5014698;28;20497;-56
2023/11/07 02:01:14;;;;;;;5.20;0.70;;;;;;;16.68;49.11;100533.78;4996724;28;20045;-56
2023/11/07 02:03:39;;;;;;;3.63;1.38;;;;;;;16.68;49.77;100531.06;5014066;28;20041;-57
2023/11/07 02:06:06;;;;;;;2.88;0.85;;;;;;;16.65;49.69;100532.28;5012930;28;20052;-57
2023/11/07 02:08:32;;;;;;;3.22;0.68;;;;;;;16.65;48.71;100537.69;5014334;28;20058;-57
2023/11/07 02:10:58;;;;;;;3.95;0.95;;;;;;;16.65;48.73;100534.97;5014182;28;20121;-57
2023/11/07 02:13:23;;;;;;;10.70;2.05;;;;;;;16.64;48.98;100527.03;5014265;28;20053;-56
2023/11/07 02:15:48;;;;;;;7.03;1.10;;;;;;;16.65;49.98;100529.56;5012570;28;20111;-57
2023/11/07 02:18:14;;;;;;;2.67;1.15;;;;;;;16.56;49.84;100508.97;5012729;28;20085;-57
2023/11/07 02:20:40;;;;;;;2.72;0.88;;;;;;;16.65;49.13;100524.16;4996113;28;20030;-56
2023/11/07 02:23:27;;;;;;;2.28;0.57;;;;;;;16.66;49.77;100525.84;5012761;28;20506;-57
2023/11/07 02:25:53;;;;;;;3.92;0.75;;;;;;;16.67;49.44;100524.81;5012634;28;20045;-57
2023/11/07 02:28:18;;;;;;;0.90;0.60;;;;;;;16.66;49.83;100533.97;5012622;28;20033;-56
2023/11/07 02:30:44;;;;;;;1.52;0.30;;;;;;;16.63;49.63;100523.50;5011639;28;20404;-57
2023/11/07 02:33:10;;;;;;;2.50;0.60;;;;;;;16.65;49.83;100532.28;5014352;28;20091;-56
2023/11/07 02:35:37;;;;;;;3.65;0.60;;;;;;;16.66;48.63;100528.56;5019219;28;20034;-59
2023/11/07 02:38:02;;;;;;;1.95;0.80;;;;;;;16.63;50.24;100523.50;5032161;28;20044;-56
2023/11/07 02:40:28;;;;;;;6.22;0.75;;;;;;;16.64;49.00;100529.72;5032203;28;20400;-57
2023/11/07 02:42:53;;;;;;;2.70;0.93;;;;;;;16.64;49.98;100521.63;5033541;28;20034;-57
2023/11/07 02:45:18;;;;;;;3.40;0.82;;;;;;;16.61;49.53;100520.09;5032315;28;20059;-56
2023/11/07 02:47:44;;;;;;;3.92;0.75;;;;;;;16.60;49.72;100529.25;5033182;28;20036;-57
2023/11/07 02:50:10;;;;;;;3.15;1.10;;;;;;;16.58;49.32;100517.75;5033077;28;20034;-57
2023/11/07 02:52:38;;;;;;;4.35;0.95;;;;;;;16.59;49.36;100515.91;5032294;28;20033;-57
2023/11/07 02:55:05;;;;;;;4.03;1.33;;;;;;;16.58;49.82;100523.16;5032526;28;20083;-57
2023/11/07 02:57:31;;;;;;;1.33;0.90;;;;;;;16.57;49.98;100520.66;5032107;28;20049;-56
2023/11/07 02:59:56;;;;;;;1.98;0.70;;;;;;;16.56;49.71;100519.78;5031850;28;20117;-57
2023/11/07 03:02:24;;;;;;;2.22;0.73;;;;;;;16.60;49.55;100529.25;5033004;28;20045;-57
2023/11/07 03:04:49;;;;;;;3.00;0.75;;;;;;;16.62;49.62;100532.63;5031460;28;20049;-57
2023/11/07 03:07:14;;;;;;;3.20;0.60;;;;;;;16.62;49.33;100532.63;5031819;28;20044;-56
2023/11/07 03:09:40;;;;;;;5.00;0.95;;;;;;;16.65;48.90;100534.97;5032969;28;20033;-56
2023/11/07 03:12:10;;;;;;;0.60;0.60;;;;;;;16.68;49.85;100541.91;5031743;28;20029;-57
2023/11/07 03:14:38;;;;;;;2.70;0.90;;;;;;;16.68;49.36;100531.06;5032980;28;20037;-57
2023/11/07 03:17:04;;;;;;;1.92;0.73;;;;;;;16.66;49.65;100528.56;5015735;28;20414;-59
2023/11/07 03:19:30;;;;;;;0.98;0.60;;;;;;;16.67;49.22;100530.22;5032884;28;20084;-57
2023/11/07 03:21:56;;;;;;;0.55;0.50;;;;;;;16.67;49.48;100510.44;5033814;28;20017;-57
2023/11/07 03:24:21;;;;;;;2.47;0.70;;;;;;;16.68;49.61;100521.09;5033347;28;20473;-57
2023/11/07 03:26:47;;;;;;;1.05;0.55;;;;;;;16.69;50.06;100521.97;5032381;28;20025;-57
2023/11/07 03:29:12;;;;;;;0.77;0.40;;;;;;;16.70;49.30;100523.63;5032012;28;20524;-57
2023/11/07 03:31:38;;;;;;;6.70;1.27;;;;;;;16.67;50.15;100518.56;5031728;28;20469;-57
2023/11/07 03:34:04;;;;;;;1.55;0.75;;;;;;;16.71;50.14;100523.47;5032960;28;20025;-56
2023/11/07 03:36:29;;;;;;;1.00;0.73;;;;;;;16.67;50.19;100522.13;5023024;28;20040;-57
2023/11/07 03:38:55;;;;;;;5.25;0.63;;;;;;;16.71;49.95;100523.47;5015720;28;20477;-57
2023/11/07 03:41:22;;;;;;;3.78;0.60;;;;;;;16.73;49.66;100534.94;5032790;28;20104;-57
2023/11/07 03:43:47;;;;;;;4.85;0.85;;;;;;;16.74;49.42;100527.69;5026706;28;20104;-57
2023/11/07 03:46:13;;;;;;;1.55;0.57;;;;;;;16.74;49.75;100528.53;5019927;28;20022;-57
2023/11/07 03:48:38;;;;;;;0.70;0.35;;;;;;;16.74;50.04;100528.53;5018715;28;20033;-56
2023/11/07 03:51:04;;;;;;;3.05;0.52;;;;;;;16.74;50.55;100528.53;5018630;28;20025;-56
2023/11/07 03:53:29;;;;;;;1.67;0.75;;;;;;;16.76;49.75;100529.19;5034930;28;20022;-57
2023/11/07 03:55:57;;;;;;;3.78;0.95;;;;;;;16.78;49.48;100529.00;5036288;28;20026;-57
2023/11/07 03:58:22;;;;;;;3.88;0.73;;;;;;;16.80;50.58;100537.78;5036474;28;20027;-57
2023/11/07 04:00:48;;;;;;;3.85;0.73;;;;;;;16.82;49.72;100530.34;5036181;28;20017;-56
2023/11/07 04:03:13;;;;;;;2.42;0.60;;;;;;;16.81;49.79;100531.34;5036063;28;20128;-57
2023/11/07 04:05:38;;;;;;;2.50;0.50;;;;;;;16.86;49.60;100540.63;5018305;28;20108;-57
2023/11/07 04:08:04;;;;;;;4.97;0.82;;;;;;;16.86;49.50;100546.03;5036673;28;20503;-56
2023/11/07 04:10:29;;;;;;;2.33;1.00;;;;;;;16.86;50.16;100540.63;5035443;28;20476;-57
2023/11/07 04:12:55;;;;;;;3.47;0.50;;;;;;;16.86;49.42;100535.22;5036438;28;20033;-57
2023/11/07 04:15:21;;;;;;;1.60;0.70;;;;;;;16.87;49.23;100539.59;5034948;28;20036;-57
2023/11/07 04:17:47;;;;;;;3.35;1.00;;;;;;;16.87;49.52;100536.91;5036163;28;20024;-56
2023/11/07 04:20:13;;;;;;;4.03;0.80;;;;;;;16.91;49.56;100536.56;5036144;28;20029;-57
2023/11/07 04:22:39;;;;;;;2.40;0.93;;;;;;;16.87;49.56;100536.91;5035908;28;20040;-56
2023/11/07 04:25:06;;;;;;;0.73;0.50;;;;;;;16.82;49.90;100536.59;5034401;28;20037;-56
2023/11/07 04:27:32;;;;;;;1.52;0.73;;;;;;;16.81;50.20;100542.16;5035713;28;20033;-57
2023/11/07 04:29:58;;;;;;;3.25;0.80;;;;;;;16.83;50.37;100540.16;5034699;28;20436;-57
2023/11/07 04:32:24;;;;;;;0.85;0.35;;;;;;;16.82;49.57;100551.97;5036204;28;20041;-57
2023/11/07 04:34:49;;;;;;;3.78;1.23;;;;;;;16.83;49.93;100540.97;5034536;28;20029;-57
2023/11/07 04:37:15;;;;;;;1.30;1.20;;;;;;;16.83;49.69;100538.25;5035847;28;20030;-57
2023/11/07 04:39:41;;;;;;;2.55;0.60;;;;;;;16.84;49.58;100531.84;5034191;28;20036;-57
2023/11/07 04:42:07;;;;;;;5.28;0.70;;;;;;;16.84;49.49;100526.44;5035159;28;20064;-57
2023/11/07 04:44:33;;;;;;;0.82;0.38;;;;;;;16.84;50.46;100534.56;5035461;28;20400;-57
2023/11/07 04:47:02;;;;;;;1.60;0.52;;;;;;;16.86;49.56;100532.50;5035437;28;20030;-57
2023/11/07 04:49:48;;;;;;;1.80;0.50;;;;;;;16.86;49.71;100534.38;5034141;28;20052;-57
2023/11/07 04:52:15;;;;;;;2.60;0.85;;;;;;;16.88;49.91;100537.75;5032725;28;20565;-57
2023/11/07 04:54:41;;;;;;;3.30;0.65;;;;;;;16.87;50.38;100536.91;5033414;28;20040;-56
2023/11/07 04:57:06;;;;;;;2.65;0.60;;;;;;;16.91;49.58;100545.53;5017396;28;20037;-57
2023/11/07 04:59:32;;;;;;;0.85;0.63;;;;;;;16.92;50.14;100538.25;5033835;28;20036;-57
2023/11/07 05:01:58;;;;;;;2.42;1.55;;;;;;;16.94;49.80;100542.47;5033809;28;20065;-56
2023/11/07 05:04:27;;;;;;;3.95;1.17;;;;;;;16.97;49.47;100546.66;5017268;28;20524;-57
2023/11/07 05:06:53;;;;;;;0.52;0.52;;;;;;;16.97;50.10;100541.25;5034025;28;20033;-57
2023/11/07 05:09:19;;;;;;;1.10;0.63;;;;;;;17.00;49.83;100546.31;5034685;28;20493;-57
2023/11/07 05:11:44;;;;;;;1.35;0.40;;;;;;;17.00;50.01;100536.31;5033627;28;20045;-56
2023/11/07 05:14:10;;;;;;;4.05;0.50;;;;;;;17.01;50.55;100538.00;5034628;28;20494;-56
2023/11/07 05:16:36;;;;;;;3.30;0.57;;;;;;;17.05;50.03;100549.34;5034753;28;20034;-57
2023/11/07 05:19:02;;;;;;;2.75;0.60;;;;;;;17.07;49.54;100541.88;5033991;28;20037;-56
2023/11/07 05:21:28;;;;;;;1.05;0.43;;;;;;;17.06;50.18;100540.16;5034618;28;20029;-57
2023/11/07 05:23:53;;;;;;;1.58;0.75;;;;;;;17.08;49.31;100551.69;5034494;28;20029;-57
2023/11/07 05:26:18;;;;;;;2.25;0.60;;;;;;;17.05;50.33;100550.19;5033319;28;20041;-57
2023/11/07 05:28:44;;;;;;;1.30;0.60;;;;;;;17.06;49.76;100551.00;5033234;28;20060;-57
2023/11/07 05:31:10;;;;;;;1.38;1.23;;;;;;;17.08;49.97;100548.97;5034529;28;20045;-57
2023/11/07 05:33:36;;;;;;;1.73;0.40;;;;;;;17.10;49.54;100552.34;5034553;28;20480;-57
2023/11/07 05:36:01;;;;;;;1.00;0.55;;;;;;;17.12;50.00;100553.00;5034433;28;20033;-56
2023/11/07 05:38:27;;;;;;;1.60;0.47;;;;;;;17.10;49.73;100549.63;5034440;28;20044;-57
2023/11/07 05:40:52;;;;;;;0.35;0.35;;;;;;;17.10;50.54;100546.94;5034512;28;20033;-57
2023/11/07 05:43:18;;;;;;;0.80;0.47;;;;;;;17.07;50.09;100547.28;5016701;28;20051;-57
2023/11/07 05:45:44;;;;;;;2.55;0.70;;;;;;;17.05;50.26;100539.34;5032910;28;20064;-57
2023/11/07 05:48:10;;;;;;;3.03;0.70;;;;;;;17.02;50.19;100538.84;5034182;28;20037;-57
2023/11/07 05:50:37;;;;;;;3.55;0.60;;;;;;;16.97;50.03;100535.84;5033933;28;20048;-56
2023/11/07 05:53:02;;;;;;;0.80;0.63;;;;;;;16.92;49.92;100538.25;5034089;28;20041;-57
2023/11/07 05:55:27;;;;;;;0.93;0.45;;;;;;;16.89;50.38;100539.41;5034080;28;20049;-57
2023/11/07 05:57:53;;;;;;;1.63;0.50;;;;;;;16.88;50.42;100537.75;5034175;28;20030;-57
2023/11/07 06:00:19;;;;;;;0.82;0.65;;;;;;;16.88;49.87;100543.16;5034068;28;20483;-57
2023/11/07 06:02:45;;;;;;;1.48;0.50;;;;;;;16.90;50.53;100546.53;5026434;28;20401;-57
2023/11/07 06:05:10;;;;;;;2.08;0.38;;;;;;;16.91;50.34;100552.78;5038728;28;20030;-57
2023/11/07 06:07:36;;;;;;;1.40;0.55;;;;;;;16.93;50.00;100556.16;5032742;28;20033;-57
2023/11/07 06:10:03;;;;;;;1.48;0.38;;;;;;;16.91;50.14;100552.78;5032607;28;20037;-56
2023/11/07 06:12:28;;;;;;;0.77;0.38;;;;;;;16.93;49.80;100558.84;5034106;28;20466;-57
2023/11/07 06:14:53;;;;;;;1.88;0.73;;;;;;;16.92;50.38;100568.00;5031639;28;20494;-57
2023/11/07 06:17:20;;;;;;;3.03;1.67;;;;;;;16.87;49.13;100563.97;5015860;28;20034;-57
2023/11/07 06:19:47;;;;;;;2.25;0.55;;;;;;;16.87;50.49;100573.94;5032463;28;20417;-57
2023/11/07 06:22:12;;;;;;;1.58;0.65;;;;;;;16.84;49.97;100579.69;5032258;28;20030;-57
2023/11/07 06:24:39;;;;;;;1.35;0.40;;;;;;;16.80;50.41;100568.41;5032550;28;20044;-57
2023/11/07 06:27:04;;;;;;;3.20;0.60;;;;;;;16.80;50.17;100579.22;5032413;28;20033;-57
2023/11/07 06:29:30;;;;;;;1.95;0.20;;;;;;;16.80;50.09;100584.63;5033606;28;20401;-56
2023/11/07 06:31:55;;;;;;;1.33;0.50;;;;;;;16.79;50.11;100577.53;5032298;28;20394;-56
2023/11/07 06:34:21;;;;;;;3.50;0.70;;;;;;;16.81;49.71;100577.34;5034018;28;20034;-57
2023/11/07 06:36:47;;;;;;;0.55;0.52;;;;;;;16.81;49.99;100580.88;5035025;28;20049;-56
2023/11/07 06:39:15;;;;;;;0.60;0.40;;;;;;;16.79;49.70;100585.63;5033805;28;20040;-57
2023/11/07 06:41:41;;;;;;;0.45;0.40;;;;;;;16.79;49.12;100593.75;5035193;28;20037;-57
2023/11/07 06:44:08;;;;;;;2.28;0.52;;;;;;;16.79;50.13;100591.06;5034564;28;20121;-57
2023/11/07 06:46:34;;;;;;;3.03;0.40;;;;;;;16.80;49.81;100595.44;5032254;28;20033;-56
2023/11/07 06:48:59;;;;;;;1.17;0.17;;;;;;;16.78;49.70;100597.47;5033311;28;20034;-57
2023/11/07 06:51:25;;;;;;;0.38;0.38;;;;;;;16.77;50.95;100595.81;5033198;28;20121;-57
2023/11/07 06:53:51;;;;;;;1.30;0.30;;;;;;;16.79;50.36;100596.47;5033383;28;20072;-57
2023/11/07 06:56:17;;;;;;;2.20;0.47;;;;;;;16.79;49.56;100599.16;5033275;28;20061;-57
2023/11/07 06:58:43;;;;;;;1.20;0.60;;;;;;;16.80;49.52;100600.88;5033405;28;20121;-56
2023/11/07 07:01:10;;;;;;;1.13;0.30;;;;;;;16.77;50.26;100598.50;5032155;28;20051;-57
2023/11/07 07:03:36;;;;;;;1.20;0.40;;;;;;;16.78;49.53;100594.75;5032218;28;20046;-56
2023/11/07 07:06:01;;;;;;;0.85;0.40;;;;;;;16.78;49.89;100589.34;5033005;28;20034;-55
2023/11/07 07:08:26;;;;;;;0.90;0.40;;;;;;;16.79;49.12;100591.06;5033114;28;20052;-56
2023/11/07 07:10:52;;;;;;;0.70;0.32;;;;;;;16.81;49.64;100591.72;5033023;28;20026;-56
2023/11/07 07:13:19;;;;;;;2.80;0.70;;;;;;;16.80;49.34;100590.03;5031796;28;20110;-56
2023/11/07 07:15:46;;;;;;;2.42;0.77;;;;;;;16.80;50.21;100600.88;5033367;28;20158;-56
2023/11/07 07:18:18;;;;;;;0.77;0.70;;;;;;;16.81;50.38;100594.41;5039609;28;20108;-56
2023/11/07 07:20:47;;;;;;;0.80;0.68;;;;;;;16.85;49.91;100603.88;5039373;28;20510;-56
2023/11/07 07:23:12;;;;;;;4.15;0.60;;;;;;;16.93;49.33;100604.84;5039414;28;20548;-58
2023/11/07 07:25:38;;;;;;;0.95;0.60;;;;;;;16.95;49.66;100608.22;5039488;28;20116;-56
2023/11/07 07:28:04;;;;;;;1.52;1.42;;;;;;;17.00;49.62;100609.38;5039544;28;20036;-56
2023/11/07 07:30:32;;;;;;;2.47;0.80;;;;;;;17.06;49.59;100605.13;5038232;28;20038;-58
2023/11/07 07:32:57;;;;;;;1.45;0.77;;;;;;;17.12;49.73;100626.06;5039223;28;20034;-56
2023/11/07 07:35:23;;;;;;;5.53;0.95;;;;;;;17.14;49.29;100621.34;5039362;28;20029;-55
2023/11/07 07:37:51;;;;;;;4.43;0.98;;;;;;;17.17;49.36;100629.13;5039322;28;20053;-56
2023/11/07 07:40:18;;;;;;;0.45;0.43;;;;;;;17.23;49.11;100629.25;5039528;28;20026;-56
2023/11/07 07:42:47;;;;;;;1.42;0.50;;;;;;;17.30;49.64;100634.81;5039289;28;20112;-56
2023/11/07 07:45:13;;;;;;;2.50;0.70;;;;;;;17.36;49.43;100634.09;5038062;28;20061;-56
2023/11/07 07:47:38;;;;;;;0.95;0.60;;;;;;;17.47;48.82;100633.69;5037919;28;20442;-56
2023/11/07 07:50:10;;;;;;;3.40;0.98;;;;;;;17.53;49.77;100638.41;5039170;28;20037;-56
2023/11/07 07:52:45;;;;;;;3.33;0.80;;;;;;;17.58;49.84;100637.88;5037962;28;20132;-57
2023/11/07 07:55:11;;;;;;;3.92;0.68;;;;;;;17.59;49.11;100631.47;5037734;28;20060;-56
2023/11/07 07:57:41;;;;;;;2.10;0.73;;;;;;;17.61;49.44;100634.81;5039364;28;20021;-56
2023/11/07 08:00:12;;;;;;;3.25;0.75;;;;;;;17.68;49.29;100639.34;5022060;28;20021;-55
2023/11/07 08:02:39;;;;;;;3.08;0.85;;;;;;;17.78;49.04;100648.06;5021973;28;20473;-57
2023/11/07 08:05:06;;;;;;;1.85;1.17;;;;;;;17.88;49.15;100645.97;5037970;28;20393;-56
2023/11/07 08:07:33;;;;;;;0.95;0.88;;;;;;;18.03;49.61;100654.97;5038970;28;20113;-56
2023/11/07 08:09:58;;;;;;;0.95;0.85;;;;;;;18.20;49.36;100652.16;5038037;28;20033;-56
2023/11/07 08:12:24;;;;;;;2.83;1.15;;;;;;;18.33;49.14;100655.09;5039005;28;20029;-56
2023/11/07 08:14:49;;;;;;;3.78;1.83;;;;;;;18.48;48.27;100647.88;5037673;28;20041;-56
2023/11/07 08:17:14;;;;;;;2.15;1.15;;;;;;;18.61;48.96;100653.50;5038244;28;20331;-56
2023/11/07 08:19:40;;;;;;;2.05;1.30;;;;;;;18.65;48.36;100648.53;5037600;28;20033;-56
2023/11/07 08:22:06;;;;;;;3.85;0.77;;;;;;;18.68;48.43;100648.16;5037716;28;20501;-56
2023/11/07 08:24:33;;;;;;;1.67;0.93;;;;;;;18.69;48.16;100647.97;5038982;28;20025;-56
2023/11/07 08:26:58;;;;;;;2.28;0.88;;;;;;;18.68;48.76;100667.97;5036565;28;20030;-56
2023/11/07 08:29:23;;;;;;;3.88;1.20;;;;;;;18.60;48.51;100660.78;5035243;28;20032;-56
2023/11/07 08:31:50;;;;;;;6.43;1.08;;;;;;;18.58;48.38;100670.13;5036046;28;20061;-56
2023/11/07 08:34:15;;;;;;;1.95;0.68;;;;;;;18.52;48.84;100673.56;5034724;28;20540;-56
2023/11/07 08:36:41;;;;;;;1.55;0.93;;;;;;;18.52;48.41;100681.72;5034334;28;20057;-56
2023/11/07 08:39:27;;;;;;;3.15;1.05;;;;;;;18.52;48.58;100676.28;5034876;28;20029;-56
2023/11/07 08:41:54;;;;;;;0.90;0.80;;;;;;;18.53;48.47;100684.25;5034912;28;20034;-57
2023/11/07 08:44:20;;;;;;;3.15;0.80;;;;;;;18.45;48.88;100692.41;5034315;28;20037;-57
2023/11/07 08:46:46;;;;;;;1.83;0.88;;;;;;;18.43;48.67;100688.19;5033286;28;20037;-56
2023/11/07 08:49:11;;;;;;;5.25;2.13;;;;;;;18.40;48.64;100685.84;5034628;28;20386;-56
2023/11/07 08:51:37;;;;;;;2.05;1.02;;;;;;;18.39;48.74;100686.91;5034523;28;20052;-57
2023/11/07 08:54:02;;;;;;;4.95;0.88;;;;;;;18.43;48.44;100693.63;5034156;28;20520;-56
2023/11/07 08:56:27;;;;;;;3.70;0.90;;;;;;;18.47;48.62;100694.97;5034274;28;20037;-56
2023/11/07 08:58:55;;;;;;;2.22;0.88;;;;;;;18.51;48.01;100701.72;5035087;28;20044;-56
2023/11/07 09:01:21;;;;;;;2.13;1.13;;;;;;;18.55;47.95;100703.06;5033808;28;20033;-56
2023/11/07 09:03:47;;;;;;;4.45;0.80;;;;;;;18.60;48.11;100706.06;5034727;28;20099;-56
2023/11/07 09:06:13;;;;;;;4.03;0.70;;;;;;;18.64;47.88;100699.25;5033709;28;20040;-56
2023/11/07 09:08:38;;;;;;;3.45;0.75;;;;;;;18.73;48.28;100700.84;5033437;28;20033;-56
2023/11/07 09:11:04;;;;;;;5.10;0.70;;;;;;;18.78;47.61;100709.28;5034934;28;20038;-57
2023/11/07 09:13:29;;;;;;;1.30;0.80;;;;;;;18.81;47.70;100708.06;5034898;28;20079;-56
2023/11/07 09:15:55;;;;;;;4.95;0.82;;;;;;;18.82;47.66;100710.59;5033568;28;20061;-57
2023/11/07 09:18:21;;;;;;;1.15;0.68;;;;;;;18.85;47.60;100715.63;5034820;28;20033;-57
2023/11/07 09:20:47;;;;;;;6.35;0.98;;;;;;;18.86;47.85;100717.34;5034695;28;20041;-56
2023/11/07 09:23:12;;;;;;;2.28;0.60;;;;;;;18.88;47.70;100730.72;5033191;28;20041;-56
2023/11/07 09:25:37;;;;;;;3.50;0.55;;;;;;;18.92;47.64;100721.19;5034981;28;20056;-56
2023/11/07 09:28:03;;;;;;;2.20;0.70;;;;;;;18.94;47.67;100719.97;5034508;28;20131;-56
2023/11/07 09:30:29;;;;;;;0.95;0.52;;;;;;;18.97;47.36;100725.03;5034490;28;20048;-56
2023/11/07 09:32:55;;;;;;;5.35;0.73;;;;;;;18.97;47.30;100716.88;5033216;28;20037;-56
2023/11/07 09:35:20;;;;;;;5.22;0.77;;;;;;;18.93;47.85;100729.13;5033181;28;20041;-57
2023/11/07 09:37:45;;;;;;;1.33;0.60;;;;;;;18.95;47.62;100737.94;5034658;28;20129;-56
2023/11/07 09:40:17;;;;;;;3.90;0.88;;;;;;;19.00;47.30;100734.66;5033961;28;20021;-57
2023/11/07 09:42:44;;;;;;;3.10;0.70;;;;;;;18.96;46.94;100727.91;5034500;28;20060;-56
2023/11/07 09:45:15;;;;;;;3.10;1.48;;;;;;;18.94;47.45;100736.25;5033267;28;20400;-56
2023/11/07 09:47:47;;;;;;;1.85;0.55;;;;;;;18.94;47.36;100733.53;5033293;28;20113;-56
2023/11/07 09:50:14;;;;;;;2.73;0.53;;;;;;;18.91;47.35;100730.34;5034161;28;20029;-56
2023/11/07 09:52:43;;;;;;;5.00;0.70;;;;;;;18.96;47.27;100741.47;5034161;28;20350;-57
2023/11/07 09:55:09;;;;;;;6.60;0.57;;;;;;;18.94;46.82;100747.13;5032886;28;20048;-57
2023/11/07 09:57:58;;;;;;;1.70;0.60;;;;;;;18.91;46.81;100752.91;5032912;28;20033;-62
2023/11/07 10:00:25;;;;;;;4.45;0.80;;;;;;;18.85;47.25;100753.66;5016560;28;20082;-57
2023/11/07 10:02:50;;;;;;;0.75;0.50;;;;;;;18.82;46.74;100754.00;5033685;28;20042;-56
2023/11/07 10:05:18;;;;;;;3.00;1.48;;;;;;;18.85;46.95;100756.34;5033872;28;20378;-56
2023/11/07 10:07:47;;;;;;;2.92;1.05;;;;;;;18.87;47.11;100758.91;5016366;28;20051;-56
2023/11/07 10:10:16;;;;;;;5.93;1.42;;;;;;;18.87;47.20;100757.00;5015828;28;20037;-56
2023/11/07 10:12:43;;;;;;;1.73;0.60;;;;;;;19.06;47.13;100752.94;5032518;28;20036;-56
2023/11/07 10:15:23;;;;;;;1.75;0.68;;;;;;;19.53;46.22;100753.44;5032486;28;20043;-57
2023/11/07 10:17:59;;;;;;;0.80;0.40;;;;;;;20.08;45.80;100761.00;5032074;28;20076;-57
2023/11/07 10:20:25;;;;;;;1.10;0.60;;;;;;;20.56;44.95;100750.41;5033536;28;20092;-56
2023/11/07 10:22:51;;;;;;;7.43;1.10;;;;;;;21.87;44.15;100752.16;5032209;28;20040;-57
2023/11/07 10:25:36;;;;;;;2.25;0.68;;;;;;;21.73;44.16;100744.09;5032543;28;20033;-58
2023/11/07 10:28:05;;;;;;;3.83;0.70;;;;;;;21.53;45.28;100754.06;5033893;28;20043;-59
2023/11/07 10:30:41;;;;;;;2.58;0.73;;;;;;;21.37;45.28;100761.53;5032400;28;20061;-58
2023/11/07 10:33:07;;;;;;;6.00;0.60;;;;;;;21.37;44.33;100761.53;5032199;28;20566;-58
2023/11/07 10:35:50;;;;;;;4.60;0.55;;;;;;;21.40;45.04;100755.69;5031983;28;20091;-58
2023/11/07 10:38:16;;;;;;;3.42;0.70;;;;;;;21.13;44.13;100742.97;5032295;28;20037;-57
2023/11/07 10:40:42;;;;;;;2.30;0.52;;;;;;;20.99;44.95;100756.66;5015658;28;20523;-58
2023/11/07 10:43:08;;;;;;;1.90;0.50;;;;;;;20.88;44.89;100752.59;5032139;28;20033;-58
2023/11/07 10:45:35;;;;;;;3.92;0.30;;;;;;;20.73;44.45;100749.09;5033230;28;20037;-58
2023/11/07 10:48:01;;;;;;;4.95;0.50;;;;;;;20.58;45.24;100761.94;5033172;28;20033;-58
2023/11/07 10:50:27;;;;;;;2.50;0.60;;;;;;;20.44;44.78;100758.25;5031358;28;20424;-56
2023/11/07 10:52:52;;;;;;;3.38;0.43;;;;;;;20.38;45.21;100755.50;5033455;28;20034;-56
2023/11/07 10:55:18;;;;;;;3.55;0.50;;;;;;;20.35;44.90;100758.59;5031995;28;20041;-56
2023/11/07 10:57:46;;;;;;;4.45;0.60;;;;;;;20.26;44.91;100761.44;5031851;28;20032;-56
2023/11/07 11:00:13;;;;;;;3.63;0.73;;;;;;;20.16;44.87;100763.59;5031624;28;20105;-56
2023/11/07 11:02:40;;;;;;;5.10;0.47;;;;;;;20.06;45.03;100754.06;5031698;28;20074;-57
2023/11/07 11:05:13;;;;;;;0.93;0.35;;;;;;;20.07;45.29;100748.41;5015298;28;20477;-56
2023/11/07 11:07:43;;;;;;;;;;;;;;;20.01;44.48;100756.53;5032324;28;20025;-58
2023/11/07 11:10:10;;;;;;;1.92;0.32;;;;;;;19.91;45.34;100745.94;5031916;28;20340;-57
2023/11/07 11:12:36;;;;;;;2.08;0.73;;;;;;;19.81;44.90;100750.84;5031810;28;20045;-58
2023/11/07 11:15:02;;;;;;;3.00;0.70;;;;;;;19.67;45.29;100749.84;5033187;28;20036;-58
2023/11/07 11:17:42;;;;;;;2.15;1.38;;;;;;;19.56;44.74;100752.22;5031710;28;20033;-56
2023/11/07 11:20:53;;;;;;;2.97;0.80;;;;;;;19.43;45.16;100755.56;5015178;28;20031;-58
2023/11/07 11:23:29;;;;;;;3.97;1.08;;;;;;;19.32;45.36;100755.19;5030155;28;20091;-56